Merrimack River @ Goffs Falls, Nh

Merrimack River at Goffs Falls
 Total Drainage Area: 3,092 sq. miles 
 Drainage Area Controlled by Corps Dams: 1,619 sq. miles (52%) 
 Warning Flow/Stage: 36,450 cfs / 12.0 feet 
 Flood Flow/Stage: 46,200 cfs / 14.0 feet 
Date Time
(Eastern)
Stage
(ft)
Flow
(cfs)
CSM
(cfs / sq. mi.)
Jan-31 02:30 pm 6.08 7,951 2.6
Jan-31 01:30 pm 6.07 7,913 2.6
Jan-31 12:30 pm 6.09 7,989 2.6
Jan-31 11:30 am 6.12 8,104 2.6
Jan-31 10:30 am 6.11 8,065 2.6
Jan-31 09:30 am 6.13 8,143 2.6
Jan-31 08:30 am 6.15 8,220 2.7
Jan-31 07:30 am 6.15 8,220 2.7
Jan-31 06:30 am 6.16 8,259 2.7
Jan-31 05:30 am 6.17 8,299 2.7
Jan-31 04:30 am 6.18 8,338 2.7
Jan-31 03:30 am 6.19 8,377 2.7
Jan-31 02:30 am 6.20 8,417 2.7
Jan-31 01:30 am 6.22 8,496 2.8
Jan-31 12:30 am 6.24 8,577 2.8
Jan-30 11:30 pm 6.27 8,698 2.8
Jan-30 10:30 pm 6.28 8,738 2.8
Jan-30 09:30 pm 6.28 8,738 2.8
Jan-30 08:30 pm 6.29 8,779 2.8
Jan-30 07:30 pm 6.30 8,820 2.9
Jan-30 06:30 pm 6.30 8,820 2.9
Jan-30 05:30 pm 6.30 8,820 2.9
Jan-30 04:30 pm 6.30 8,820 2.9
Jan-30 03:30 pm 6.30 8,820 2.9
Jan-30 02:30 pm 6.30 8,820 2.9
Report Generated January 31, 2023 03:27 pm